createdAt,value
2022-09-01T00:03:08.851Z,1012.655
2022-09-01T00:23:07.652Z,1012.619
2022-09-01T00:43:07.426Z,1012.772
2022-09-01T01:03:08.185Z,1012.591
2022-09-01T01:23:08.019Z,1012.483
2022-09-01T01:43:07.898Z,1012.579
2022-09-01T02:03:08.749Z,1012.693
2022-09-01T02:23:07.454Z,1012.656
2022-09-01T02:43:07.386Z,1012.694
2022-09-01T03:03:08.111Z,1012.579
2022-09-01T03:23:07.998Z,1012.545
2022-09-01T03:43:07.842Z,1012.495
2022-09-01T04:03:08.571Z,1012.581
2022-09-01T04:23:07.352Z,1012.624
2022-09-01T04:43:07.752Z,1012.563
2022-09-01T05:03:08.677Z,1012.534
2022-09-01T05:23:07.495Z,1012.487
2022-09-01T05:43:07.394Z,1012.541
2022-09-01T06:03:08.720Z,1012.595
2022-09-01T06:23:07.700Z,1012.503
2022-09-01T06:43:07.674Z,1012.744
2022-09-01T07:03:08.421Z,1012.782
2022-09-01T07:23:08.090Z,1012.83
2022-09-01T07:43:08.244Z,1012.805
2022-09-01T08:03:08.347Z,1012.765
2022-09-01T08:23:07.265Z,1012.827
2022-09-01T08:43:15.526Z,1012.761
2022-09-01T09:03:09.466Z,1012.827
2022-09-01T09:23:07.439Z,1012.703
2022-09-01T09:43:07.445Z,1012.572
2022-09-01T10:03:12.765Z,1012.501
2022-09-01T10:23:16.200Z,1012.35
2022-09-01T10:43:13.398Z,1012.259
2022-09-01T11:03:41.233Z,1012.092
2022-09-01T11:23:09.439Z,1012.054
2022-09-01T11:43:13.381Z,1012.03
2022-09-01T12:03:08.778Z,1011.909
2022-09-01T12:23:07.659Z,1011.815
2022-09-01T12:43:08.862Z,1011.688
2022-09-01T13:03:09.946Z,1011.472
2022-09-01T13:23:07.882Z,1011.428
2022-09-01T13:43:08.047Z,1011.241
2022-09-01T14:03:08.913Z,1011.133
2022-09-01T14:23:07.875Z,1011.087
2022-09-01T14:43:07.950Z,1010.923
2022-09-01T15:03:08.814Z,1010.766
2022-09-01T15:23:07.538Z,1010.683
2022-09-01T15:43:07.610Z,1010.439
2022-09-01T16:03:08.526Z,1010.398
2022-09-01T16:23:07.352Z,1010.33
2022-09-01T16:43:07.490Z,1010.223
2022-09-01T17:03:08.486Z,1010.084
2022-09-01T17:23:07.610Z,1010.116
2022-09-01T17:43:07.743Z,1010.186
2022-09-01T18:03:08.593Z,1010.143
2022-09-01T18:23:07.278Z,1010.202
2022-09-01T18:43:07.301Z,1010.296
2022-09-01T19:03:08.464Z,1010.4
2022-09-01T19:23:07.367Z,1010.54
2022-09-01T19:43:07.425Z,1010.586
2022-09-01T20:03:08.671Z,1010.652
2022-09-01T20:23:07.534Z,1010.633
2022-09-01T20:43:07.795Z,1010.635
2022-09-01T21:03:12.704Z,1010.67
2022-09-01T21:23:07.915Z,1010.649
2022-09-01T21:43:07.167Z,1010.657
2022-09-01T22:03:08.287Z,1010.622
2022-09-01T22:23:08.006Z,1010.536
2022-09-01T22:43:07.855Z,1010.527
2022-09-01T23:03:08.564Z,1010.431
2022-09-01T23:23:07.381Z,1010.411
2022-09-01T23:43:07.331Z,1010.276
